Time;durP1;ratioP1;P1;durP2;ratioP2;P2;SDS_P1;SDS_P2;PMS_P1;PMS_P2;Temp;Humidity;BMP_temperature;BMP_pressure;BME280_temperature;BME280_humidity;BME280_pressure;Samples;Min_cycle;Max_cycle;Signal;HPM_P1;HPM_P2
2022/04/25 00:00:05;;;;;;;12.02;7.50;;;14.50;53.10;;;7.56;83.60;100653.06;172705;28;919;-69
2022/04/25 00:00:12;;;;;;;11.87;7.40;;;14.50;53.10;;;7.57;83.37;100649.56;172708;28;1022;-70
2022/04/25 00:00:18;;;;;;;11.87;7.50;;;14.50;53.10;;;7.58;83.63;100651.25;172753;28;934;-70
2022/04/25 00:00:24;;;;;;;11.80;7.60;;;14.40;53.00;;;7.62;83.32;100652.84;172712;28;978;-69
2022/04/25 00:00:30;;;;;;;10.97;7.60;;;14.50;53.10;;;7.67;82.40;100650.94;172710;28;922;-69
2022/04/25 00:00:36;;;;;;;10.00;7.68;;;14.50;53.10;;;7.72;82.89;100655.97;172717;28;1045;-68
2022/04/25 00:00:41;;;;;;;9.55;7.63;;;14.50;53.00;;;7.75;82.07;100649.81;172088;28;1033;-69
2022/04/25 00:00:47;;;;;;;9.50;7.70;;;14.50;53.00;;;7.76;82.81;100648.94;172110;28;931;-70
2022/04/25 00:00:52;;;;;;;9.33;7.77;;;14.40;53.00;;;7.73;83.35;100653.34;171959;28;904;-69
2022/04/25 00:00:58;;;;;;;9.13;7.65;;;14.40;53.00;;;7.72;82.96;100654.25;172033;28;1025;-69
2022/04/25 00:01:04;;;;;;;9.20;7.63;;;14.50;53.00;;;7.73;82.45;100649.88;171965;28;1302;-68
2022/04/25 00:01:11;;;;;;;9.05;7.60;;;14.50;53.10;;;7.76;82.67;100654.16;172015;28;873;-68
2022/04/25 00:01:17;;;;;;;8.88;7.64;;;14.40;53.10;;;7.72;83.28;100654.25;171919;28;1621;-68
2022/04/25 00:01:24;;;;;;;9.56;7.58;;;14.40;53.10;;;7.70;83.25;100652.59;172050;28;915;-68
2022/04/25 00:01:29;;;;;;;10.30;7.73;;;14.50;53.10;;;7.67;83.76;100656.13;172065;28;1225;-70
2022/04/25 00:01:36;;;;;;;10.57;7.70;;;14.50;53.10;;;7.64;83.44;100651.06;172040;28;1097;-70
2022/04/25 00:01:42;;;;;;;11.56;7.80;;;14.50;53.10;;;7.63;83.94;100649.34;172007;28;1029;-71
2022/04/25 00:01:48;;;;;;;11.63;7.72;;;14.50;53.10;;;7.66;82.70;100654.44;172040;28;894;-70
2022/04/25 00:01:54;;;;;;;11.32;7.68;;;14.50;53.10;;;7.69;83.12;100651.75;172059;28;1528;-69
2022/04/25 00:02:00;;;;;;;11.82;7.70;;;14.50;53.10;;;7.73;82.17;100650.75;172038;28;990;-69
2022/04/25 00:02:05;;;;;;;11.73;7.67;;;14.40;53.10;;;7.79;82.27;100651.41;172039;28;860;-69
2022/04/25 00:02:11;;;;;;;10.75;7.50;;;14.40;53.10;;;7.83;82.50;100655.59;171958;28;1400;-69
2022/04/25 00:02:17;;;;;;;11.02;7.68;;;14.40;53.10;;;7.85;82.04;100649.50;172049;28;1181;-71
2022/04/25 00:02:24;;;;;;;11.83;7.77;;;14.40;53.10;;;7.89;82.04;100650.22;172003;28;1116;-69
2022/04/25 00:02:30;;;;;;;11.15;7.60;;;14.40;53.10;;;7.92;81.47;100652.72;172021;28;986;-69
2022/04/25 00:02:36;;;;;;;10.95;7.72;;;14.40;53.10;;;7.93;81.94;100651.81;172031;28;820;-69
2022/04/25 00:02:42;;;;;;;11.02;7.82;;;14.50;53.20;;;7.92;81.27;100650.13;172029;28;974;-69
2022/04/25 00:02:49;;;;;;;10.90;7.77;;;14.40;53.10;;;7.91;82.30;100652.75;172041;28;863;-69
2022/04/25 00:02:55;;;;;;;10.10;7.80;;;14.40;53.20;;;7.85;82.00;100653.81;172757;28;1013;-70
2022/04/25 00:03:03;;;;;;;9.47;7.73;;;14.40;53.20;;;7.80;82.20;100647.94;172738;28;1037;-70
2022/04/25 00:03:09;;;;;;;10.48;7.72;;;14.50;53.20;;;7.78;82.59;100652.34;172618;28;1090;-71
2022/04/25 00:03:14;;;;;;;10.73;7.60;;;14.40;53.20;;;7.75;82.36;100652.44;172446;28;985;-70
2022/04/25 00:03:20;;;;;;;11.18;7.57;;;14.40;53.20;;;7.73;82.68;100650.75;172119;28;867;-70
2022/04/25 00:03:26;;;;;;;11.45;7.57;;;14.40;53.20;;;7.73;82.78;100657.66;172113;28;1037;-70
2022/04/25 00:03:32;;;;;;;11.98;7.70;;;14.40;53.20;;;7.71;83.25;100652.56;172135;28;922;-69
2022/04/25 00:03:38;;;;;;;11.27;7.67;;;14.40;53.20;;;7.75;82.61;100647.22;172094;28;1105;-69
2022/04/25 00:03:45;;;;;;;10.90;7.70;;;14.40;53.20;;;7.75;83.00;100657.63;172100;28;926;-68
2022/04/25 00:03:51;;;;;;;10.30;7.70;;;14.40;53.20;;;7.70;83.95;100650.84;172102;28;1077;-69
2022/04/25 00:03:57;;;;;;;10.55;7.70;;;14.40;53.20;;;7.68;83.51;100644.84;172140;28;970;-69
2022/04/25 00:04:03;;;;;;;10.63;7.70;;;14.40;53.20;;;7.63;84.18;100651.94;172075;28;1089;-67
2022/04/25 00:04:09;;;;;;;11.14;7.86;;;14.40;53.30;;;7.60;83.48;100649.47;171970;28;1182;-67
2022/04/25 00:04:15;;;;;;;10.95;7.80;;;14.40;53.30;;;7.59;83.72;100652.94;172070;28;941;-68
2022/04/25 00:04:21;;;;;;;10.77;7.72;;;14.40;53.30;;;7.58;84.00;100646.06;172033;28;1041;-69
2022/04/25 00:04:26;;;;;;;11.10;7.80;;;14.40;53.30;;;7.57;84.10;100654.75;172081;28;922;-69
2022/04/25 00:04:32;;;;;;;11.05;7.82;;;14.40;53.30;;;7.56;83.75;100647.88;172037;28;950;-69
2022/04/25 00:04:38;;;;;;;11.65;7.72;;;14.40;53.30;;;7.54;84.45;100654.84;171947;28;990;-69
2022/04/25 00:04:43;;;;;;;12.83;8.00;;;14.40;53.30;;;7.54;84.72;100654.84;171946;28;732;-69
2022/04/25 00:04:49;;;;;;;13.57;8.00;;;14.40;53.30;;;7.55;84.15;100651.34;172019;28;1030;-70
2022/04/25 00:04:55;;;;;;;13.77;8.07;;;14.40;53.30;;;7.54;84.08;100649.66;172044;28;1037;-70
2022/04/25 00:05:00;;;;;;;13.80;8.00;;;14.40;53.30;;;7.56;83.91;100648.69;171288;28;875;-68
2022/04/25 00:05:07;;;;;;;14.38;7.97;;;14.40;53.30;;;7.58;84.30;100657.31;171343;28;935;-69
2022/04/25 00:05:13;;;;;;;13.30;7.84;;;14.30;53.30;;;7.58;83.89;100653.84;171226;28;1169;-70
2022/04/25 00:05:18;;;;;;;13.15;8.00;;;14.40;53.30;;;7.57;83.75;100657.34;171353;28;1109;-68
2022/04/25 00:05:24;;;;;;;13.50;7.87;;;14.40;53.30;;;7.61;83.77;100656.34;171397;28;919;-68
2022/04/25 00:05:30;;;;;;;13.30;8.00;;;14.40;53.30;;;7.60;83.62;100655.47;170512;28;1533;-68
2022/04/25 00:05:36;;;;;;;11.98;7.93;;;14.40;53.30;;;7.60;84.25;100652.06;170439;28;1616;-69
2022/04/25 00:05:42;;;;;;;11.05;7.80;;;14.40;53.30;;;7.59;84.40;100652.94;171246;28;1049;-69
2022/04/25 00:05:48;;;;;;;10.30;7.68;;;14.30;53.30;;;7.60;83.70;100654.66;171347;28;931;-69
2022/04/25 00:05:53;;;;;;;9.63;7.63;;;14.40;53.30;;;7.68;83.32;100657.84;171399;28;867;-70
2022/04/25 00:05:59;;;;;;;9.00;7.63;;;14.40;53.30;;;7.72;82.50;100656.84;171433;28;859;-70
2022/04/25 00:06:05;;;;;;;8.70;7.65;;;14.40;53.30;;;7.77;82.77;100659.25;171353;28;1089;-69
2022/04/25 00:06:11;;;;;;;9.45;7.80;;;14.40;53.30;;;7.81;82.28;100660.88;171391;28;1265;-70
2022/04/25 00:06:17;;;;;;;9.50;7.75;;;14.40;53.30;;;7.77;83.26;100659.25;171281;28;944;-69
2022/04/25 00:06:23;;;;;;;9.25;7.75;;;14.40;53.30;;;7.74;83.78;100656.78;171380;28;844;-69
2022/04/25 00:06:29;;;;;;;10.32;7.78;;;14.40;53.30;;;7.76;82.96;100659.34;171405;28;982;-69
2022/04/25 00:06:35;;;;;;;10.30;7.77;;;14.40;53.30;;;7.81;82.64;100654.84;171402;28;860;-70
2022/04/25 00:06:41;;;;;;;9.98;7.60;;;14.40;53.30;;;7.85;81.81;100653.81;171361;28;1022;-70
2022/04/25 00:06:46;;;;;;;10.40;7.63;;;14.40;53.30;;;7.88;81.75;100663.25;171384;28;927;-70
2022/04/25 00:06:52;;;;;;;11.13;7.70;;;14.30;53.30;;;7.91;82.20;100652.75;171358;28;939;-69
2022/04/25 00:06:58;;;;;;;10.30;7.60;;;14.40;53.30;;;7.92;82.09;100655.31;171602;28;1338;-69
2022/04/25 00:07:04;;;;;;;10.60;7.60;;;14.40;53.30;;;7.92;81.85;100655.31;172057;28;985;-69
2022/04/25 00:07:10;;;;;;;10.25;7.53;;;14.40;53.30;;;7.95;81.69;100662.16;172036;28;1038;-69
2022/04/25 00:07:16;;;;;;;10.15;7.55;;;14.40;53.30;;;7.95;81.41;100655.22;172001;28;1014;-69
2022/04/25 00:07:22;;;;;;;9.98;7.50;;;14.30;53.30;;;7.97;81.26;100658.59;171961;28;1000;-70
2022/04/25 00:07:28;;;;;;;10.38;7.43;;;14.30;53.30;;;7.95;82.08;100660.41;172086;28;982;-70
2022/04/25 00:07:34;;;;;;;10.65;7.47;;;14.30;53.30;;;7.92;81.93;100655.31;172039;28;915;-69
2022/04/25 00:07:39;;;;;;;10.95;7.63;;;14.40;53.30;;;7.90;82.47;100654.50;172042;28;887;-69
2022/04/25 00:07:45;;;;;;;10.63;7.53;;;14.40;53.30;;;7.90;82.63;100654.50;172051;28;915;-69
2022/04/25 00:07:51;;;;;;;10.45;7.47;;;14.30;53.30;;;7.90;82.05;100654.50;172054;28;930;-69
2022/04/25 00:07:56;;;;;;;11.18;7.53;;;14.40;53.30;;;7.90;82.08;100662.31;172044;28;1045;-69
2022/04/25 00:08:02;;;;;;;11.27;7.65;;;14.30;53.30;;;7.94;81.45;100658.69;172038;28;1057;-69
2022/04/25 00:08:08;;;;;;;11.53;7.80;;;14.40;53.30;;;7.97;81.27;100658.59;172005;28;1092;-69
2022/04/25 00:08:13;;;;;;;11.23;7.72;;;14.40;53.30;;;7.99;81.57;100656.81;172014;28;1058;-69
2022/04/25 00:08:19;;;;;;;11.32;7.82;;;14.30;53.30;;;8.01;81.27;100658.50;172066;28;1049;-70
2022/04/25 00:08:25;;;;;;;11.67;8.00;;;14.40;53.30;;;8.02;80.75;100661.03;172053;28;826;-70
2022/04/25 00:08:31;;;;;;;11.85;8.00;;;14.30;53.30;;;8.03;80.98;100660.13;172041;28;970;-70
2022/04/25 00:08:37;;;;;;;11.75;7.95;;;14.40;53.30;;;7.96;82.07;100659.50;172047;28;1468;-70
2022/04/25 00:08:43;;;;;;;11.45;7.95;;;14.30;53.30;;;7.92;82.68;100665.72;172098;28;1048;-71
2022/04/25 00:08:49;;;;;;;11.57;8.10;;;14.30;53.30;;;7.95;81.83;100660.41;171928;28;915;-70
2022/04/25 00:08:55;;;;;;;11.17;8.10;;;14.40;53.30;;;7.98;81.25;100662.88;172075;28;871;-69
2022/04/25 00:09:00;;;;;;;10.35;8.00;;;14.30;53.30;;;7.96;81.87;100658.66;171993;28;907;-69
2022/04/25 00:09:06;;;;;;;10.25;8.05;;;14.30;53.30;;;7.97;81.25;100656.00;171968;28;737;-69
2022/04/25 00:09:12;;;;;;;10.93;7.88;;;14.30;53.40;;;8.00;81.05;100657.63;171298;28;1329;-69
2022/04/25 00:09:18;;;;;;;10.77;7.77;;;14.30;53.40;;;8.00;80.85;100657.63;171361;28;1195;-70
2022/04/25 00:09:23;;;;;;;9.82;7.60;;;14.30;53.40;;;7.97;81.38;100663.78;171343;28;922;-70
2022/04/25 00:09:29;;;;;;;10.45;7.60;;;14.30;53.40;;;7.95;81.97;100655.22;171358;28;948;-69
2022/04/25 00:09:35;;;;;;;10.45;7.45;;;14.30;53.40;;;7.97;81.23;100657.72;171371;28;872;-69
2022/04/25 00:09:41;;;;;;;10.03;7.63;;;14.30;53.40;;;7.92;82.27;100659.66;171355;28;986;-70
2022/04/25 00:09:46;;;;;;;10.35;7.68;;;14.30;53.40;;;7.93;81.93;100657.00;171307;28;872;-69
2022/04/25 00:09:52;;;;;;;12.13;7.68;;;14.30;53.40;;;7.93;81.68;100659.59;171358;28;1120;-69
2022/04/25 00:09:58;;;;;;;12.20;7.77;;;14.30;53.40;;;7.90;82.67;100657.09;171394;28;1054;-69
2022/04/25 00:10:05;;;;;;;11.95;7.72;;;14.30;53.40;;;7.85;82.63;100659.03;171345;28;947;-69
2022/04/25 00:10:10;;;;;;;11.58;7.66;;;14.30;53.40;;;7.85;82.61;100664.22;171303;28;1191;-69
2022/04/25 00:10:16;;;;;;;11.93;7.70;;;14.30;53.40;;;7.81;83.21;100660.03;171297;28;1973;-70
2022/04/25 00:10:22;;;;;;;10.55;7.75;;;14.30;53.40;;;7.80;83.18;100655.75;171370;28;1090;-69
2022/04/25 00:10:28;;;;;;;10.15;7.70;;;14.30;53.40;;;7.86;81.82;100656.38;171389;28;1382;-70
2022/04/25 00:10:34;;;;;;;11.23;7.77;;;14.30;53.40;;;7.90;81.97;100661.47;171369;28;920;-71
2022/04/25 00:10:39;;;;;;;12.10;7.90;;;14.30;53.40;;;7.92;81.68;100657.91;171345;28;923;-71
2022/04/25 00:10:46;;;;;;;12.57;7.93;;;14.40;53.50;;;7.94;81.29;100663.88;171358;28;1026;-70
2022/04/25 00:10:51;;;;;;;13.27;8.00;;;14.30;53.40;;;7.95;81.07;100664.75;172068;28;982;-71
2022/04/25 00:10:57;;;;;;;14.07;8.00;;;14.30;53.50;;;7.95;81.60;100663.00;172037;28;1054;-70
2022/04/25 00:11:04;;;;;;;13.68;8.10;;;14.30;53.40;;;7.96;81.34;100656.91;171938;28;918;-71
2022/04/25 00:11:10;;;;;;;13.00;8.00;;;14.30;53.50;;;7.98;81.38;100655.09;171264;28;1176;-70
2022/04/25 00:11:17;;;;;;;12.43;7.93;;;14.30;53.50;;;7.92;82.46;100655.31;171355;28;1050;-70
2022/04/25 00:11:23;;;;;;;12.18;7.90;;;14.30;53.50;;;7.89;82.55;100660.63;171282;28;1644;-70
2022/04/25 00:11:28;;;;;;;11.68;7.82;;;14.30;53.50;;;7.93;81.87;100662.19;171271;28;1022;-70
2022/04/25 00:11:34;;;;;;;11.05;7.60;;;14.30;53.50;;;7.94;81.66;100661.28;171389;28;1100;-70
2022/04/25 00:11:40;;;;;;;11.20;7.70;;;14.30;53.50;;;7.97;81.83;100656.00;171321;28;1034;-70
2022/04/25 00:11:45;;;;;;;11.55;7.80;;;14.30;53.50;;;7.98;80.92;100652.50;171713;28;880;-71
2022/04/25 00:11:51;;;;;;;11.52;7.85;;;14.30;53.50;;;8.00;80.91;100657.63;172007;28;1121;-71
2022/04/25 00:11:57;;;;;;;11.30;7.88;;;14.30;53.50;;;8.01;81.28;100668.88;172041;28;920;-70
2022/04/25 00:12:03;;;;;;;11.57;7.90;;;14.30;53.50;;;8.02;81.17;100652.38;172042;28;978;-71
2022/04/25 00:12:10;;;;;;;11.18;7.84;;;14.30;53.50;;;8.01;80.62;100653.31;171554;28;1143;-71
2022/04/25 00:12:16;;;;;;;10.63;7.80;;;14.30;53.50;;;7.98;80.61;100655.09;172022;28;1071;-71
2022/04/25 00:12:22;;;;;;;11.32;7.82;;;14.30;53.50;;;7.98;80.81;100654.25;172023;28;971;-71
2022/04/25 00:12:28;;;;;;;12.15;7.75;;;14.30;53.50;;;7.97;80.93;100653.41;172065;28;856;-70
2022/04/25 00:12:34;;;;;;;11.84;7.82;;;14.30;53.50;;;7.98;81.02;100655.09;171254;28;1042;-70
2022/04/25 00:12:39;;;;;;;12.57;7.90;;;14.30;53.50;;;8.00;80.99;100660.22;171342;28;1077;-70
2022/04/25 00:12:45;;;;;;;12.95;7.80;;;14.30;53.50;;;7.96;81.14;100664.69;171362;28;821;-68
2022/04/25 00:12:51;;;;;;;12.70;7.77;;;14.30;53.50;;;7.98;81.41;100655.09;171375;28;958;-69
2022/04/25 00:12:57;;;;;;;11.80;7.80;;;14.30;53.50;;;7.99;80.75;100655.94;171398;28;900;-70
2022/04/25 00:13:02;;;;;;;11.77;7.67;;;14.30;53.50;;;7.99;80.65;100656.81;171379;28;856;-70
2022/04/25 00:13:08;;;;;;;12.23;7.63;;;14.30;53.50;;;7.96;81.49;100659.50;171358;28;1100;-69
2022/04/25 00:13:14;;;;;;;12.50;7.80;;;14.30;53.50;;;7.97;80.92;100663.78;171356;28;1061;-70
2022/04/25 00:13:20;;;;;;;12.63;7.90;;;14.30;53.50;;;7.98;80.94;100660.28;171391;28;947;-69
2022/04/25 00:13:26;;;;;;;13.27;8.07;;;14.30;53.60;;;7.97;81.72;100656.00;171357;28;947;-70
2022/04/25 00:13:32;;;;;;;14.23;8.27;;;14.30;53.60;;;7.92;82.39;100660.50;171223;28;979;-69
2022/04/25 00:13:38;;;;;;;14.30;8.30;;;14.30;53.60;;;7.87;82.41;100665.00;171305;28;955;-70
2022/04/25 00:13:44;;;;;;;13.38;8.27;;;14.30;53.60;;;7.85;82.28;100661.63;171367;28;1065;-69
2022/04/25 00:13:50;;;;;;;12.50;8.03;;;14.30;53.60;;;7.90;82.04;100658.88;171347;28;1070;-70
2022/04/25 00:13:56;;;;;;;12.48;8.20;;;14.30;53.60;;;7.92;81.20;100655.31;171251;28;1050;-70
2022/04/25 00:14:01;;;;;;;12.05;8.23;;;14.30;53.60;;;7.91;82.29;100660.56;171402;28;1369;-71
2022/04/25 00:14:07;;;;;;;12.00;8.33;;;14.30;53.60;;;7.88;82.31;100668.44;171304;28;848;-71
2022/04/25 00:14:14;;;;;;;12.30;8.23;;;14.20;53.60;;;7.86;81.79;100661.56;171348;28;1096;-70
2022/04/25 00:14:20;;;;;;;13.04;8.24;;;14.30;53.60;;;7.92;81.41;100663.13;171360;28;935;-69
2022/04/25 00:14:26;;;;;;;12.52;7.97;;;14.30;53.60;;;7.95;81.51;100662.16;171279;28;1069;-70
2022/04/25 00:14:31;;;;;;;12.82;7.90;;;14.30;53.60;;;7.96;81.21;100662.09;171408;28;852;-71
2022/04/25 00:14:37;;;;;;;12.27;7.73;;;14.30;53.60;;;7.96;81.49;100662.09;171364;28;971;-71
2022/04/25 00:14:43;;;;;;;11.93;7.80;;;14.30;53.60;;;7.95;81.39;100660.41;171347;28;895;-71
2022/04/25 00:14:48;;;;;;;11.13;7.78;;;14.30;53.60;;;7.95;80.84;100655.22;171278;28;919;-71
2022/04/25 00:14:54;;;;;;;10.93;7.87;;;14.20;53.60;;;7.98;81.24;100664.66;170542;28;1064;-70
2022/04/25 00:15:00;;;;;;;10.23;7.85;;;14.30;53.60;;;8.00;81.04;100657.63;170638;29;931;-70
2022/04/25 00:15:07;;;;;;;10.00;7.90;;;14.30;53.60;;;7.99;80.58;100667.19;170605;29;852;-69
2022/04/25 00:15:12;;;;;;;11.70;8.00;;;14.30;53.60;;;7.95;81.49;100655.22;170656;29;1152;-68
2022/04/25 00:15:18;;;;;;;12.27;8.05;;;14.30;53.60;;;7.89;82.22;100662.34;170684;29;1104;-69
2022/04/25 00:15:27;;;;;;;12.48;8.05;;;14.30;53.60;;;7.81;82.66;100660.03;170690;29;959;-69
2022/04/25 00:15:32;;;;;;;12.87;8.07;;;14.30;53.60;;;7.70;82.76;100661.22;170686;29;1925;-69
2022/04/25 00:15:38;;;;;;;12.67;7.97;;;14.30;53.70;;;7.66;83.04;100664.00;170667;29;1090;-69
2022/04/25 00:15:44;;;;;;;11.40;7.95;;;14.20;53.70;;;7.60;83.29;100658.09;170527;28;967;-69
2022/04/25 00:15:52;;;;;;;11.10;8.00;;;14.30;53.70;;;7.59;83.33;100663.31;170701;29;903;-69
2022/04/25 00:15:58;;;;;;;10.53;7.97;;;14.30;53.70;;;7.59;83.41;100664.19;170738;29;931;-69
2022/04/25 00:16:04;;;;;;;10.52;8.10;;;14.30;53.70;;;7.59;83.19;100658.13;170677;29;982;-69
2022/04/25 00:16:10;;;;;;;10.93;8.20;;;14.30;53.70;;;7.57;84.24;100662.53;170721;29;978;-69
2022/04/25 00:16:18;;;;;;;9.77;8.15;;;14.20;53.70;;;7.55;84.28;100666.91;170690;29;1022;-69
2022/04/25 00:16:24;;;;;;;9.60;8.23;;;14.30;53.70;;;7.54;84.37;100660.03;170985;28;998;-69
2022/04/25 00:16:29;;;;;;;9.52;8.07;;;14.30;53.70;;;7.54;83.81;100665.22;171355;28;1018;-69
2022/04/25 00:16:35;;;;;;;9.83;7.93;;;14.20;53.70;;;7.53;84.25;100659.19;171358;28;994;-70
2022/04/25 00:16:41;;;;;;;9.93;7.90;;;14.30;53.80;;;7.52;83.88;100660.09;171382;28;926;-70
2022/04/25 00:16:46;;;;;;;9.80;7.75;;;14.30;53.80;;;7.49;84.58;100656.75;171256;28;1058;-70
2022/04/25 00:16:56;;;;;;;10.70;7.68;;;14.30;53.80;;;7.45;84.92;100659.44;171627;28;939;-69
2022/04/25 00:17:01;;;;;;;11.50;7.96;;;14.30;53.80;;;7.39;84.75;100661.41;172010;28;1054;-69
2022/04/25 00:17:07;;;;;;;12.18;8.10;;;14.20;53.80;;;7.34;85.06;100658.94;172044;28;1041;-69
2022/04/25 00:17:13;;;;;;;12.35;8.15;;;14.30;53.80;;;7.32;85.18;100660.72;171918;28;1094;-70
2022/04/25 00:17:19;;;;;;;13.47;8.47;;;14.20;53.80;;;7.31;85.10;100664.22;172067;28;859;-70
2022/04/25 00:17:24;;;;;;;14.48;8.52;;;14.20;53.70;;;7.29;85.36;100666.03;172056;28;834;-70
2022/04/25 00:17:30;;;;;;;14.93;8.52;;;14.20;53.80;;;7.29;85.04;100660.84;172078;28;761;-70
2022/04/25 00:17:36;;;;;;;14.33;8.40;;;14.20;53.70;;;7.29;85.80;100666.84;172015;28;1026;-70
2022/04/25 00:17:41;;;;;;;14.35;8.40;;;14.20;53.70;;;7.28;85.35;100659.13;171437;28;860;-71
2022/04/25 00:17:47;;;;;;;14.07;8.35;;;14.20;53.70;;;7.28;85.93;100659.13;171979;28;862;-70
2022/04/25 00:17:53;;;;;;;13.55;8.32;;;14.20;53.70;;;7.28;85.01;100659.97;171990;28;1105;-70
2022/04/25 00:17:59;;;;;;;12.67;8.30;;;14.20;53.70;;;7.30;84.69;100658.19;172018;28;994;-70
2022/04/25 00:18:05;;;;;;;13.27;8.30;;;14.20;53.70;;;7.31;85.51;100662.47;172038;28;867;-69
2022/04/25 00:18:11;;;;;;;12.97;8.20;;;14.20;53.70;;;7.30;85.42;100660.78;172052;28;978;-69
2022/04/25 00:18:16;;;;;;;12.80;8.13;;;14.20;53.70;;;7.29;85.24;100664.25;172022;28;1026;-69
2022/04/25 00:18:22;;;;;;;12.50;8.02;;;14.20;53.70;;;7.32;84.73;100658.13;172014;28;1081;-70
2022/04/25 00:18:29;;;;;;;12.50;8.05;;;14.20;53.70;;;7.37;84.71;100664.03;172060;28;1188;-70
2022/04/25 00:18:34;;;;;;;12.17;8.00;;;14.20;53.70;;;7.38;85.03;100660.53;172029;28;954;-71
2022/04/25 00:18:40;;;;;;;11.93;7.95;;;14.20;53.70;;;7.39;85.26;100657.03;172008;28;1034;-71
2022/04/25 00:18:48;;;;;;;11.50;8.03;;;14.20;53.70;;;7.47;84.01;100662.81;172057;28;1097;-71
2022/04/25 00:18:54;;;;;;;10.03;8.00;;;14.20;53.80;;;7.56;84.26;100663.44;172040;28;903;-70
2022/04/25 00:19:00;;;;;;;10.43;8.05;;;14.20;53.80;;;7.59;83.48;100660.72;172025;28;1090;-70
2022/04/25 00:19:06;;;;;;;10.05;8.00;;;14.20;53.80;;;7.62;83.26;100662.41;172021;28;907;-71
2022/04/25 00:19:12;;;;;;;11.07;8.10;;;14.20;53.80;;;7.63;82.77;100664.91;171939;28;801;-71
2022/04/25 00:19:18;;;;;;;10.93;8.03;;;14.20;53.80;;;7.62;82.99;100660.63;172017;28;1026;-71
2022/04/25 00:19:23;;;;;;;10.98;8.00;;;14.20;53.80;;;7.63;82.75;100659.72;172013;28;919;-71
2022/04/25 00:19:29;;;;;;;10.77;8.00;;;14.20;53.80;;;7.67;82.84;100668.28;172056;28;939;-71
2022/04/25 00:19:38;;;;;;;11.07;8.23;;;14.20;53.80;;;7.67;83.11;100658.72;172035;28;923;-71
2022/04/25 00:19:44;;;;;;;10.20;8.24;;;14.20;53.80;;;7.71;82.41;100657.75;172628;28;1349;-71
2022/04/25 00:19:50;;;;;;;10.47;8.23;;;14.20;53.80;;;7.72;82.97;100668.97;172652;28;1125;-71
2022/04/25 00:19:56;;;;;;;10.43;8.23;;;14.20;53.80;;;7.73;82.54;100655.94;172689;28;875;-71
2022/04/25 00:20:04;;;;;;;10.80;8.30;;;14.20;53.90;;;7.75;82.44;100666.28;172750;28;966;-71
2022/04/25 00:20:10;;;;;;;10.68;8.17;;;14.20;53.90;;;7.73;82.59;100666.31;171954;28;1263;-71
2022/04/25 00:20:16;;;;;;;11.26;8.16;;;14.20;53.80;;;7.72;82.70;100659.44;172039;28;1164;-71
2022/04/25 00:20:21;;;;;;;11.25;8.10;;;14.10;53.90;;;7.72;82.63;100656.84;172042;28;1104;-71
2022/04/25 00:20:27;;;;;;;10.83;8.10;;;14.20;53.80;;;7.73;82.36;100658.53;172031;28;891;-71
2022/04/25 00:20:33;;;;;;;10.27;8.05;;;14.20;53.90;;;7.71;82.24;100662.94;171918;28;986;-71
2022/04/25 00:20:39;;;;;;;10.77;8.18;;;14.20;53.90;;;7.71;82.15;100667.28;172037;28;855;-71
2022/04/25 00:20:45;;;;;;;10.13;8.20;;;14.10;53.90;;;7.69;82.34;100664.72;172030;28;1034;-71
2022/04/25 00:20:51;;;;;;;9.75;8.15;;;14.10;53.90;;;7.68;82.64;100657.84;172005;28;1043;-71
2022/04/25 00:20:56;;;;;;;9.80;8.30;;;14.10;54.00;;;7.68;82.84;100665.63;172041;28;991;-71
2022/04/25 00:21:02;;;;;;;10.48;8.27;;;14.10;54.00;;;7.69;82.78;100663.88;172077;28;918;-71
2022/04/25 00:21:08;;;;;;;10.13;8.17;;;14.10;54.00;;;7.71;82.40;100660.34;172066;28;995;-71
2022/04/25 00:21:15;;;;;;;10.43;8.20;;;14.10;53.90;;;7.69;82.80;100669.06;172007;28;962;-70
2022/04/25 00:21:20;;;;;;;11.20;8.17;;;14.10;53.90;;;7.62;83.36;100660.63;172068;28;1138;-71
2022/04/25 00:21:26;;;;;;;11.73;8.10;;;14.10;54.00;;;7.58;83.83;100666.81;172040;28;864;-70
2022/04/25 00:21:33;;;;;;;11.97;8.03;;;14.10;53.90;;;7.57;83.73;100665.13;172104;28;887;-71
2022/04/25 00:21:39;;;;;;;11.80;8.02;;;14.20;54.00;;;7.57;83.82;100660.78;172022;28;1416;-70
2022/04/25 00:21:44;;;;;;;12.33;8.00;;;14.10;53.90;;;7.59;83.06;100661.59;171499;28;871;-71
2022/04/25 00:21:53;;;;;;;12.15;8.05;;;14.10;54.00;;;7.59;82.89;100660.72;171335;28;951;-71
2022/04/25 00:21:59;;;;;;;11.53;8.20;;;14.10;53.90;;;7.63;82.52;100670.13;171344;28;1080;-70
2022/04/25 00:22:05;;;;;;;11.60;8.30;;;14.10;53.90;;;7.64;82.45;100661.44;171335;28;915;-70
2022/04/25 00:22:11;;;;;;;11.75;8.32;;;14.10;54.00;;;7.65;82.59;100662.28;172009;28;915;-69
2022/04/25 00:22:16;;;;;;;11.63;8.27;;;14.10;53.90;;;7.67;82.35;100666.50;172006;28;1034;-69
2022/04/25 00:22:22;;;;;;;12.63;8.35;;;14.10;53.90;;;7.64;83.09;100668.38;172014;28;836;-69
2022/04/25 00:22:28;;;;;;;14.00;8.20;;;14.10;54.00;;;7.59;83.30;100669.38;172033;28;1107;-69
2022/04/25 00:22:35;;;;;;;14.32;8.18;;;14.10;54.00;;;7.60;82.83;100662.44;172588;28;1120;-69
2022/04/25 00:22:40;;;;;;;14.22;8.04;;;14.10;54.00;;;7.59;82.93;100668.53;172711;28;979;-69
2022/04/25 00:22:46;;;;;;;14.10;8.03;;;14.10;54.00;;;7.58;83.21;100665.09;172730;28;832;-68
2022/04/25 00:22:52;;;;;;;13.32;7.97;;;14.20;54.00;;;7.61;83.03;100666.72;172693;28;1091;-69
2022/04/25 00:23:00;;;;;;;12.77;8.25;;;14.10;54.00;;;7.63;82.82;100662.31;172724;28;927;-70
2022/04/25 00:23:06;;;;;;;12.73;8.37;;;14.10;54.00;;;7.66;82.42;100664.81;172753;28;899;-70
2022/04/25 00:23:12;;;;;;;12.40;8.30;;;14.10;54.00;;;7.67;82.21;100666.50;172734;28;982;-71
2022/04/25 00:23:17;;;;;;;12.65;8.40;;;14.10;54.00;;;7.69;82.13;100664.72;172706;28;761;-70
2022/04/25 00:23:24;;;;;;;13.17;8.37;;;14.10;54.00;;;7.70;81.97;100668.19;172683;28;1026;-70
2022/04/25 00:23:30;;;;;;;12.77;8.20;;;14.10;54.00;;;7.72;82.37;100663.78;172763;28;942;-70
2022/04/25 00:23:36;;;;;;;12.07;8.32;;;14.10;54.00;;;7.72;82.05;100662.03;172699;28;1082;-70
2022/04/25 00:23:43;;;;;;;11.93;8.50;;;14.10;54.00;;;7.73;82.33;100665.47;172653;28;1117;-71
2022/04/25 00:23:48;;;;;;;11.73;8.53;;;14.10;54.00;;;7.73;81.86;100666.31;172496;28;961;-71
2022/04/25 00:23:54;;;;;;;11.65;8.60;;;14.10;53.90;;;7.73;81.80;100666.31;172077;28;1046;-71
2022/04/25 00:24:00;;;;;;;11.37;8.40;;;14.10;53.90;;;7.76;81.65;100664.53;172099;28;1057;-71
2022/04/25 00:24:06;;;;;;;12.10;8.38;;;14.10;53.90;;;7.75;82.12;100662.81;172053;28;1077;-71
2022/04/25 00:24:12;;;;;;;12.33;8.37;;;14.10;53.90;;;7.76;81.80;100674.94;172087;28;1030;-71
2022/04/25 00:24:19;;;;;;;11.77;8.23;;;14.10;53.90;;;7.73;82.34;100668.91;171898;28;1275;-71
2022/04/25 00:24:25;;;;;;;10.96;8.16;;;14.10;53.90;;;7.75;81.48;100665.41;172028;28;955;-71
2022/04/25 00:24:31;;;;;;;12.98;8.32;;;14.10;53.90;;;7.73;81.56;100666.31;172033;28;1030;-71
2022/04/25 00:24:36;;;;;;;12.23;8.25;;;14.10;53.90;;;7.69;82.14;100669.94;172035;28;966;-71
2022/04/25 00:24:44;;;;;;;11.90;8.20;;;14.10;53.90;;;7.68;82.33;100663.03;172037;28;1026;-71
2022/04/25 00:24:50;;;;;;;12.72;8.40;;;14.00;53.90;;;7.69;82.35;100667.31;172008;28;934;-71
2022/04/25 00:24:56;;;;;;;12.70;8.30;;;14.10;53.90;;;7.65;82.70;100662.28;172034;28;990;-70
2022/04/25 00:25:02;;;;;;;11.20;8.20;;;14.10;53.90;;;7.60;83.38;100665.88;172052;28;986;-70
2022/04/25 00:25:09;;;;;;;11.26;8.26;;;14.00;53.90;;;7.56;83.27;100666.88;171938;28;1219;-70
2022/04/25 00:25:14;;;;;;;11.30;8.23;;;14.00;53.90;;;7.62;83.05;100667.59;172035;28;884;-70
2022/04/25 00:25:20;;;;;;;11.38;8.32;;;14.10;53.90;;;7.65;82.07;100670.94;171933;28;923;-71
2022/04/25 00:25:28;;;;;;;11.87;8.40;;;14.00;53.90;;;7.67;81.91;100665.69;171978;28;1092;-71
2022/04/25 00:25:36;;;;;;;11.97;8.27;;;14.00;53.90;;;7.65;82.19;100670.94;172038;28;986;-71
2022/04/25 00:25:41;;;;;;;16.03;8.23;;;14.10;53.90;;;7.66;82.17;100670.03;172056;28;1037;-71
2022/04/25 00:25:47;;;;;;;15.98;8.15;;;14.00;53.90;;;7.66;82.03;100664.00;172029;28;914;-71